Montebello, Virginia
Current Conditions -  °F | °C
As of 8:15 AM on Thursday 18 Dec 2014 (Local Time) from KW13 Reporting Station
Clear Clear  
Wind Chill: 27°   Ceiling: Unl
Heat Index: 27°   Visibility: 10mi
Dew Point: 19°   Wind: 3mph
Humidity: 71%   Direction: 230°SW
Pressure: 30.14"   Gusts: NA
Location:  37.86°N, 79.14°W
Report Text: KW13 181315Z AUTO 23003KT 10SM CLR M03/M07 A3014 RMK AO1 T10291075
Loading
Personal Weather Stations






























Interactive Weather Map New forecast layout! Learn more

10-Day Weather Forecast

Advertisements
Track Severe Weather on mobile